sensor_id;sensor_type;location;lat;lon;timestamp;pressure;altitude;pressure_sealevel;temperature;humidity
68986;BME280;56035;37.534;-122.308;2022-07-23T00:01:01;101092.66;;;22.13;45.59
68986;BME280;56035;37.534;-122.308;2022-07-23T00:03:28;101091.41;;;21.91;45.82
68986;BME280;56035;37.534;-122.308;2022-07-23T00:05:54;101092.44;;;21.82;45.71
68986;BME280;56035;37.534;-122.308;2022-07-23T00:08:20;101092.94;;;21.84;45.98
68986;BME280;56035;37.534;-122.308;2022-07-23T00:10:46;101098.56;;;21.84;46.09
68986;BME280;56035;37.534;-122.308;2022-07-23T00:13:12;101098.00;;;21.68;46.21
68986;BME280;56035;37.534;-122.308;2022-07-23T00:15:38;101088.06;;;21.62;46.31
68986;BME280;56035;37.534;-122.308;2022-07-23T00:18:04;101081.59;;;21.61;46.37
68986;BME280;56035;37.534;-122.308;2022-07-23T00:20:31;101086.97;;;21.58;46.32
68986;BME280;56035;37.534;-122.308;2022-07-23T00:22:57;101091.94;;;21.47;46.84
68986;BME280;56035;37.534;-122.308;2022-07-23T00:25:23;101094.69;;;21.33;46.99
68986;BME280;56035;37.534;-122.308;2022-07-23T00:27:50;101098.78;;;21.22;47.56
68986;BME280;56035;37.534;-122.308;2022-07-23T00:30:16;101102.28;;;21.14;47.49
68986;BME280;56035;37.534;-122.308;2022-07-23T00:32:51;101104.44;;;21.03;47.85
68986;BME280;56035;37.534;-122.308;2022-07-23T00:35:21;101106.84;;;20.91;48.57
68986;BME280;56035;37.534;-122.308;2022-07-23T00:37:47;101104.22;;;20.80;48.59
68986;BME280;56035;37.534;-122.308;2022-07-23T00:40:14;101102.53;;;20.61;48.69
68986;BME280;56035;37.534;-122.308;2022-07-23T00:42:40;101106.31;;;20.51;49.25
68986;BME280;56035;37.534;-122.308;2022-07-23T00:45:07;101108.13;;;20.37;49.47
68986;BME280;56035;37.534;-122.308;2022-07-23T00:47:34;101107.66;;;20.29;50.01
68986;BME280;56035;37.534;-122.308;2022-07-23T00:50:00;101097.16;;;20.21;50.34
68986;BME280;56035;37.534;-122.308;2022-07-23T00:52:27;101109.53;;;20.15;50.47
68986;BME280;56035;37.534;-122.308;2022-07-23T00:54:53;101107.31;;;20.12;50.74
68986;BME280;56035;37.534;-122.308;2022-07-23T00:57:19;101102.81;;;19.92;50.90
68986;BME280;56035;37.534;-122.308;2022-07-23T00:59:45;101103.41;;;19.89;51.25
68986;BME280;56035;37.534;-122.308;2022-07-23T01:02:11;101106.47;;;19.87;51.41
68986;BME280;56035;37.534;-122.308;2022-07-23T01:04:38;101100.41;;;19.80;51.66
68986;BME280;56035;37.534;-122.308;2022-07-23T01:07:04;101100.47;;;19.75;51.73
68986;BME280;56035;37.534;-122.308;2022-07-23T01:09:31;101096.66;;;19.66;52.07
68986;BME280;56035;37.534;-122.308;2022-07-23T01:11:58;101101.72;;;19.59;52.09
68986;BME280;56035;37.534;-122.308;2022-07-23T01:14:25;101101.22;;;19.52;52.12
68986;BME280;56035;37.534;-122.308;2022-07-23T01:16:52;101092.34;;;19.45;52.26
68986;BME280;56035;37.534;-122.308;2022-07-23T01:19:18;101100.00;;;19.34;52.56
68986;BME280;56035;37.534;-122.308;2022-07-23T01:21:49;101097.88;;;19.21;52.66
68986;BME280;56035;37.534;-122.308;2022-07-23T01:24:16;101088.41;;;19.16;52.92
68986;BME280;56035;37.534;-122.308;2022-07-23T01:26:45;101087.38;;;19.07;53.15
68986;BME280;56035;37.534;-122.308;2022-07-23T01:29:13;101081.56;;;18.99;53.34
68986;BME280;56035;37.534;-122.308;2022-07-23T01:31:39;101077.13;;;18.92;53.69
68986;BME280;56035;37.534;-122.308;2022-07-23T01:34:05;101075.84;;;18.80;53.94
68986;BME280;56035;37.534;-122.308;2022-07-23T01:36:33;101069.41;;;18.79;54.27
68986;BME280;56035;37.534;-122.308;2022-07-23T01:39:00;101066.72;;;18.64;54.92
68986;BME280;56035;37.534;-122.308;2022-07-23T01:41:26;101067.28;;;18.61;55.08
68986;BME280;56035;37.534;-122.308;2022-07-23T01:43:52;101065.41;;;18.51;55.46
68986;BME280;56035;37.534;-122.308;2022-07-23T01:46:18;101069.59;;;18.43;55.60
68986;BME280;56035;37.534;-122.308;2022-07-23T01:48:45;101072.19;;;18.30;55.97
68986;BME280;56035;37.534;-122.308;2022-07-23T01:51:11;101065.28;;;18.17;56.34
68986;BME280;56035;37.534;-122.308;2022-07-23T01:53:37;101063.66;;;18.06;56.86
68986;BME280;56035;37.534;-122.308;2022-07-23T01:56:03;101062.03;;;17.94;56.77
68986;BME280;56035;37.534;-122.308;2022-07-23T01:58:30;101069.28;;;17.90;56.56
68986;BME280;56035;37.534;-122.308;2022-07-23T02:00:56;101074.34;;;17.78;57.38
68986;BME280;56035;37.534;-122.308;2022-07-23T02:03:22;101070.72;;;17.67;57.41
68986;BME280;56035;37.534;-122.308;2022-07-23T02:05:49;101070.19;;;17.60;57.57
68986;BME280;56035;37.534;-122.308;2022-07-23T02:08:16;101066.00;;;17.52;57.70
68986;BME280;56035;37.534;-122.308;2022-07-23T02:10:42;101071.59;;;17.47;57.97
68986;BME280;56035;37.534;-122.308;2022-07-23T02:13:08;101068.00;;;17.37;58.24
68986;BME280;56035;37.534;-122.308;2022-07-23T02:15:34;101067.72;;;17.28;58.99
68986;BME280;56035;37.534;-122.308;2022-07-23T02:18:01;101062.72;;;17.15;58.93
68986;BME280;56035;37.534;-122.308;2022-07-23T02:20:27;101056.84;;;17.06;59.27
68986;BME280;56035;37.534;-122.308;2022-07-23T02:22:53;101063.25;;;16.96;59.90
68986;BME280;56035;37.534;-122.308;2022-07-23T02:25:19;101056.31;;;16.89;60.00
68986;BME280;56035;37.534;-122.308;2022-07-23T02:27:45;101066.03;;;16.81;60.18
68986;BME280;56035;37.534;-122.308;2022-07-23T02:30:12;101058.47;;;16.66;60.68
68986;BME280;56035;37.534;-122.308;2022-07-23T02:32:38;101065.97;;;16.60;60.67
68986;BME280;56035;37.534;-122.308;2022-07-23T02:35:05;101063.69;;;16.47;61.66
68986;BME280;56035;37.534;-122.308;2022-07-23T02:37:32;101070.09;;;16.43;61.92
68986;BME280;56035;37.534;-122.308;2022-07-23T02:39:58;101072.56;;;16.34;61.91
68986;BME280;56035;37.534;-122.308;2022-07-23T02:42:24;101063.31;;;16.18;62.62
68986;BME280;56035;37.534;-122.308;2022-07-23T02:44:51;101063.84;;;16.05;63.53
68986;BME280;56035;37.534;-122.308;2022-07-23T02:47:17;101069.34;;;15.95;63.69
68986;BME280;56035;37.534;-122.308;2022-07-23T02:49:44;101071.81;;;15.86;63.79
68986;BME280;56035;37.534;-122.308;2022-07-23T02:52:10;101072.84;;;15.75;64.51
68986;BME280;56035;37.534;-122.308;2022-07-23T02:54:36;101077.22;;;15.65;64.71
68986;BME280;56035;37.534;-122.308;2022-07-23T02:57:03;101079.97;;;15.60;64.96
68986;BME280;56035;37.534;-122.308;2022-07-23T02:59:29;101083.00;;;15.54;65.32
68986;BME280;56035;37.534;-122.308;2022-07-23T03:01:55;101079.81;;;15.40;65.27
68986;BME280;56035;37.534;-122.308;2022-07-23T03:04:22;101084.75;;;15.33;66.48
68986;BME280;56035;37.534;-122.308;2022-07-23T03:06:48;101083.84;;;15.22;66.68
68986;BME280;56035;37.534;-122.308;2022-07-23T03:09:14;101078.53;;;15.15;66.87
68986;BME280;56035;37.534;-122.308;2022-07-23T03:11:40;101083.72;;;15.07;67.46
68986;BME280;56035;37.534;-122.308;2022-07-23T03:14:06;101091.44;;;14.99;67.64
68986;BME280;56035;37.534;-122.308;2022-07-23T03:16:33;101081.03;;;14.85;68.83
68986;BME280;56035;37.534;-122.308;2022-07-23T03:18:59;101084.88;;;14.79;69.19
68986;BME280;56035;37.534;-122.308;2022-07-23T03:21:25;101080.06;;;14.69;69.64
68986;BME280;56035;37.534;-122.308;2022-07-23T03:23:52;101084.06;;;14.56;69.52
68986;BME280;56035;37.534;-122.308;2022-07-23T03:26:18;101088.38;;;14.47;70.39
68986;BME280;56035;37.534;-122.308;2022-07-23T03:28:44;101094.41;;;14.39;70.46
68986;BME280;56035;37.534;-122.308;2022-07-23T03:31:10;101092.06;;;14.31;71.72
68986;BME280;56035;37.534;-122.308;2022-07-23T03:33:36;101094.72;;;14.20;71.76
68986;BME280;56035;37.534;-122.308;2022-07-23T03:36:02;101095.44;;;14.11;72.12
68986;BME280;56035;37.534;-122.308;2022-07-23T03:38:28;101100.88;;;14.05;72.23
68986;BME280;56035;37.534;-122.308;2022-07-23T03:40:55;101099.41;;;13.98;72.63
68986;BME280;56035;37.534;-122.308;2022-07-23T03:43:21;101093.78;;;13.93;72.35
68986;BME280;56035;37.534;-122.308;2022-07-23T03:45:47;101098.69;;;13.86;73.18
68986;BME280;56035;37.534;-122.308;2022-07-23T03:48:13;101094.16;;;13.79;73.76
68986;BME280;56035;37.534;-122.308;2022-07-23T03:50:39;101097.97;;;13.73;73.69
68986;BME280;56035;37.534;-122.308;2022-07-23T03:53:05;101114.75;;;13.67;74.81
68986;BME280;56035;37.534;-122.308;2022-07-23T03:55:31;101107.47;;;13.61;74.85
68986;BME280;56035;37.534;-122.308;2022-07-23T03:57:58;101109.06;;;13.56;74.58
68986;BME280;56035;37.534;-122.308;2022-07-23T04:00:24;101108.16;;;13.51;74.99
68986;BME280;56035;37.534;-122.308;2022-07-23T04:02:50;101105.81;;;13.43;75.78
68986;BME280;56035;37.534;-122.308;2022-07-23T04:05:16;101100.28;;;13.43;75.09
68986;BME280;56035;37.534;-122.308;2022-07-23T04:07:43;101110.78;;;13.41;76.19
68986;BME280;56035;37.534;-122.308;2022-07-23T04:10:09;101099.00;;;13.33;75.61
68986;BME280;56035;37.534;-122.308;2022-07-23T04:12:35;101111.69;;;13.29;76.34
68986;BME280;56035;37.534;-122.308;2022-07-23T04:15:02;101103.31;;;13.24;76.97
68986;BME280;56035;37.534;-122.308;2022-07-23T04:17:28;101108.44;;;13.21;76.50
68986;BME280;56035;37.534;-122.308;2022-07-23T04:19:54;101111.72;;;13.18;77.11
68986;BME280;56035;37.534;-122.308;2022-07-23T04:22:20;101110.31;;;13.15;77.18
68986;BME280;56035;37.534;-122.308;2022-07-23T04:24:46;101107.22;;;13.11;77.34
68986;BME280;56035;37.534;-122.308;2022-07-23T04:27:12;101118.50;;;13.10;77.96
68986;BME280;56035;37.534;-122.308;2022-07-23T04:29:38;101108.22;;;13.05;77.90
68986;BME280;56035;37.534;-122.308;2022-07-23T04:32:05;101117.84;;;13.03;77.80
68986;BME280;56035;37.534;-122.308;2022-07-23T04:34:31;101110.53;;;12.97;78.38
68986;BME280;56035;37.534;-122.308;2022-07-23T04:36:57;101117.66;;;12.93;78.65
68986;BME280;56035;37.534;-122.308;2022-07-23T04:39:23;101121.53;;;12.92;78.79
68986;BME280;56035;37.534;-122.308;2022-07-23T04:41:49;101131.38;;;12.87;78.87
68986;BME280;56035;37.534;-122.308;2022-07-23T04:44:16;101134.06;;;12.82;79.21
68986;BME280;56035;37.534;-122.308;2022-07-23T04:46:44;101133.13;;;12.77;78.81
68986;BME280;56035;37.534;-122.308;2022-07-23T04:49:10;101130.25;;;12.72;79.45
68986;BME280;56035;37.534;-122.308;2022-07-23T04:51:36;101139.66;;;12.71;79.42
68986;BME280;56035;37.534;-122.308;2022-07-23T04:54:02;101137.63;;;12.66;79.96
68986;BME280;56035;37.534;-122.308;2022-07-23T04:56:28;101140.28;;;12.61;80.06
68986;BME280;56035;37.534;-122.308;2022-07-23T04:58:55;101138.84;;;12.58;79.92
68986;BME280;56035;37.534;-122.308;2022-07-23T05:01:24;101125.03;;;12.58;80.48
68986;BME280;56035;37.534;-122.308;2022-07-23T05:03:53;101124.13;;;12.53;80.42
68986;BME280;56035;37.534;-122.308;2022-07-23T05:06:22;101125.19;;;12.52;80.88
68986;BME280;56035;37.534;-122.308;2022-07-23T05:08:48;101124.34;;;12.51;80.63
68986;BME280;56035;37.534;-122.308;2022-07-23T05:11:14;101125.44;;;12.50;80.99
68986;BME280;56035;37.534;-122.308;2022-07-23T05:13:40;101137.81;;;12.48;81.58
68986;BME280;56035;37.534;-122.308;2022-07-23T05:16:06;101128.09;;;12.45;81.20
68986;BME280;56035;37.534;-122.308;2022-07-23T05:18:32;101123.91;;;12.43;81.14
68986;BME280;56035;37.534;-122.308;2022-07-23T05:20:59;101123.31;;;12.40;81.20
68986;BME280;56035;37.534;-122.308;2022-07-23T05:23:25;101117.66;;;12.35;81.89
68986;BME280;56035;37.534;-122.308;2022-07-23T05:25:51;101117.31;;;12.32;82.35
68986;BME280;56035;37.534;-122.308;2022-07-23T05:28:17;101119.50;;;12.30;82.05
68986;BME280;56035;37.534;-122.308;2022-07-23T05:30:43;101120.84;;;12.27;81.88
68986;BME280;56035;37.534;-122.308;2022-07-23T05:33:09;101111.94;;;12.25;82.22
68986;BME280;56035;37.534;-122.308;2022-07-23T05:35:35;101119.66;;;12.23;82.74
68986;BME280;56035;37.534;-122.308;2022-07-23T05:38:01;101115.09;;;12.17;82.43
68986;BME280;56035;37.534;-122.308;2022-07-23T05:40:28;101111.25;;;12.18;82.90
68986;BME280;56035;37.534;-122.308;2022-07-23T05:42:55;101114.25;;;12.16;83.04
68986;BME280;56035;37.534;-122.308;2022-07-23T05:45:21;101110.53;;;12.11;82.72
68986;BME280;56035;37.534;-122.308;2022-07-23T05:47:48;101104.19;;;12.10;82.94
68986;BME280;56035;37.534;-122.308;2022-07-23T05:50:15;101112.69;;;12.09;83.37
68986;BME280;56035;37.534;-122.308;2022-07-23T05:52:41;101113.78;;;12.08;83.32
68986;BME280;56035;37.534;-122.308;2022-07-23T05:55:09;101103.22;;;12.05;84.24
68986;BME280;56035;37.534;-122.308;2022-07-23T05:57:36;101108.97;;;12.03;84.19
68986;BME280;56035;37.534;-122.308;2022-07-23T06:00:05;101103.72;;;12.02;83.96
68986;BME280;56035;37.534;-122.308;2022-07-23T06:02:32;101097.34;;;12.01;84.51
68986;BME280;56035;37.534;-122.308;2022-07-23T06:04:58;101099.78;;;11.98;84.09
68986;BME280;56035;37.534;-122.308;2022-07-23T06:07:24;101094.25;;;11.98;84.42
68986;BME280;56035;37.534;-122.308;2022-07-23T06:09:50;101098.19;;;12.02;84.61
68986;BME280;56035;37.534;-122.308;2022-07-23T06:12:17;101097.59;;;12.00;84.70
68986;BME280;56035;37.534;-122.308;2022-07-23T06:14:44;101103.97;;;12.00;84.89
68986;BME280;56035;37.534;-122.308;2022-07-23T06:17:10;101100.13;;;12.01;84.29
68986;BME280;56035;37.534;-122.308;2022-07-23T06:19:36;101098.69;;;11.99;84.32
68986;BME280;56035;37.534;-122.308;2022-07-23T06:22:02;101103.97;;;12.00;84.80
68986;BME280;56035;37.534;-122.308;2022-07-23T06:24:29;101093.16;;;11.99;84.64
68986;BME280;56035;37.534;-122.308;2022-07-23T06:26:55;101096.75;;;11.99;84.74
68986;BME280;56035;37.534;-122.308;2022-07-23T06:29:21;101101.22;;;12.00;84.67
68986;BME280;56035;37.534;-122.308;2022-07-23T06:31:47;101093.41;;;11.97;85.03
68986;BME280;56035;37.534;-122.308;2022-07-23T06:34:13;101094.25;;;11.98;85.03
68986;BME280;56035;37.534;-122.308;2022-07-23T06:36:39;101087.63;;;11.99;85.22
68986;BME280;56035;37.534;-122.308;2022-07-23T06:39:05;101088.38;;;11.94;85.21
68986;BME280;56035;37.534;-122.308;2022-07-23T06:41:32;101089.69;;;11.91;85.28
68986;BME280;56035;37.534;-122.308;2022-07-23T06:43:58;101093.56;;;11.90;86.04
68986;BME280;56035;37.534;-122.308;2022-07-23T06:46:24;101088.72;;;11.86;85.56
68986;BME280;56035;37.534;-122.308;2022-07-23T06:48:50;101078.16;;;11.83;86.07
68986;BME280;56035;37.534;-122.308;2022-07-23T06:51:16;101081.16;;;11.81;85.67
68986;BME280;56035;37.534;-122.308;2022-07-23T06:53:43;101075.88;;;11.80;85.92
68986;BME280;56035;37.534;-122.308;2022-07-23T06:56:09;101065.91;;;11.79;86.50
68986;BME280;56035;37.534;-122.308;2022-07-23T06:58:35;101062.31;;;11.78;85.92
68986;BME280;56035;37.534;-122.308;2022-07-23T07:01:01;101058.72;;;11.78;86.18
68986;BME280;56035;37.534;-122.308;2022-07-23T07:03:27;101063.63;;;11.76;86.14
68986;BME280;56035;37.534;-122.308;2022-07-23T07:05:53;101051.63;;;11.70;86.04
68986;BME280;56035;37.534;-122.308;2022-07-23T07:08:40;101056.59;;;11.68;86.52
68986;BME280;56035;37.534;-122.308;2022-07-23T07:11:06;101056.81;;;11.66;86.30
68986;BME280;56035;37.534;-122.308;2022-07-23T07:13:34;101061.97;;;11.63;86.54
68986;BME280;56035;37.534;-122.308;2022-07-23T07:16:00;101061.97;;;11.63;85.91
68986;BME280;56035;37.534;-122.308;2022-07-23T07:18:26;101069.16;;;11.64;86.49
68986;BME280;56035;37.534;-122.308;2022-07-23T07:20:52;101063.06;;;11.62;86.51
68986;BME280;56035;37.534;-122.308;2022-07-23T07:23:18;101060.78;;;11.59;86.27
68986;BME280;56035;37.534;-122.308;2022-07-23T07:25:46;101064.63;;;11.58;86.34
68986;BME280;56035;37.534;-122.308;2022-07-23T07:28:13;101066.53;;;11.57;86.24
68986;BME280;56035;37.534;-122.308;2022-07-23T07:30:39;101066.19;;;11.54;87.03
68986;BME280;56035;37.534;-122.308;2022-07-23T07:33:05;101069.19;;;11.52;86.72
68986;BME280;56035;37.534;-122.308;2022-07-23T07:35:31;101063.81;;;11.45;86.81
68986;BME280;56035;37.534;-122.308;2022-07-23T07:37:59;101067.66;;;11.44;87.02
68986;BME280;56035;37.534;-122.308;2022-07-23T07:40:26;101068.13;;;11.41;86.55
68986;BME280;56035;37.534;-122.308;2022-07-23T07:42:52;101059.25;;;11.39;87.07
68986;BME280;56035;37.534;-122.308;2022-07-23T07:45:23;101061.88;;;11.34;87.23
68986;BME280;56035;37.534;-122.308;2022-07-23T07:47:50;101058.53;;;11.32;87.28
68986;BME280;56035;37.534;-122.308;2022-07-23T07:50:16;101066.19;;;11.30;87.79
68986;BME280;56035;37.534;-122.308;2022-07-23T07:52:42;101072.19;;;11.27;87.44
68986;BME280;56035;37.534;-122.308;2022-07-23T07:55:10;101067.97;;;11.24;87.61
68986;BME280;56035;37.534;-122.308;2022-07-23T07:57:37;101078.44;;;11.22;87.80
68986;BME280;56035;37.534;-122.308;2022-07-23T08:00:05;101073.38;;;11.19;87.74
68986;BME280;56035;37.534;-122.308;2022-07-23T08:02:50;101071.94;;;11.17;88.02
68986;BME280;56035;37.534;-122.308;2022-07-23T08:05:21;101065.59;;;11.16;88.44
68986;BME280;56035;37.534;-122.308;2022-07-23T08:07:48;101068.97;;;11.18;88.73
68986;BME280;56035;37.534;-122.308;2022-07-23T08:10:15;101061.38;;;11.14;89.10
68986;BME280;56035;37.534;-122.308;2022-07-23T08:12:46;101070.13;;;11.11;88.70
68986;BME280;56035;37.534;-122.308;2022-07-23T08:15:13;101069.31;;;11.10;89.04
68986;BME280;56035;37.534;-122.308;2022-07-23T08:17:41;101080.09;;;11.12;89.70
68986;BME280;56035;37.534;-122.308;2022-07-23T08:20:08;101073.16;;;11.09;88.87
68986;BME280;56035;37.534;-122.308;2022-07-23T08:22:47;101072.03;;;10.98;89.12
68986;BME280;56035;37.534;-122.308;2022-07-23T08:25:14;101064.00;;;10.97;89.35
68986;BME280;56035;37.534;-122.308;2022-07-23T08:27:41;101064.72;;;10.92;89.44
68986;BME280;56035;37.534;-122.308;2022-07-23T08:30:08;101062.44;;;10.89;89.37
68986;BME280;56035;37.534;-122.308;2022-07-23T08:32:51;101060.38;;;10.85;90.01
68986;BME280;56035;37.534;-122.308;2022-07-23T08:35:22;101059.81;;;10.83;90.63
68986;BME280;56035;37.534;-122.308;2022-07-23T08:37:48;101053.91;;;10.79;90.27
68986;BME280;56035;37.534;-122.308;2022-07-23T08:40:14;101064.19;;;10.72;90.19
68986;BME280;56035;37.534;-122.308;2022-07-23T08:42:41;101054.41;;;10.76;90.49
68986;BME280;56035;37.534;-122.308;2022-07-23T08:45:08;101054.88;;;10.73;90.67
68986;BME280;56035;37.534;-122.308;2022-07-23T08:47:37;101051.50;;;10.71;91.30
68986;BME280;56035;37.534;-122.308;2022-07-23T08:50:04;101050.66;;;10.70;91.06
68986;BME280;56035;37.534;-122.308;2022-07-23T08:52:30;101052.69;;;10.75;91.40
68986;BME280;56035;37.534;-122.308;2022-07-23T08:54:57;101055.44;;;10.75;91.16
68986;BME280;56035;37.534;-122.308;2022-07-23T08:57:23;101055.91;;;10.72;91.14
68986;BME280;56035;37.534;-122.308;2022-07-23T08:59:49;101054.63;;;10.74;91.28
68986;BME280;56035;37.534;-122.308;2022-07-23T09:02:16;101058.47;;;10.73;91.68
68986;BME280;56035;37.534;-122.308;2022-07-23T09:04:42;101058.22;;;10.75;91.65
68986;BME280;56035;37.534;-122.308;2022-07-23T09:07:08;101063.25;;;10.78;91.69
68986;BME280;56035;37.534;-122.308;2022-07-23T09:09:34;101054.50;;;10.81;91.63
68986;BME280;56035;37.534;-122.308;2022-07-23T09:12:09;101066.63;;;10.80;91.96
68986;BME280;56035;37.534;-122.308;2022-07-23T09:14:37;101065.31;;;10.83;91.78
68986;BME280;56035;37.534;-122.308;2022-07-23T09:17:15;101078.84;;;10.84;92.16
68986;BME280;56035;37.534;-122.308;2022-07-23T09:19:42;101078.00;;;10.84;91.94
68986;BME280;56035;37.534;-122.308;2022-07-23T09:22:26;101077.16;;;10.83;92.07
68986;BME280;56035;37.534;-122.308;2022-07-23T09:25:11;101072.50;;;10.84;92.04
68986;BME280;56035;37.534;-122.308;2022-07-23T09:30:15;101074.28;;;10.78;92.08
68986;BME280;56035;37.534;-122.308;2022-07-23T09:32:42;101081.09;;;10.75;92.16
68986;BME280;56035;37.534;-122.308;2022-07-23T09:35:08;101090.06;;;10.71;92.42
68986;BME280;56035;37.534;-122.308;2022-07-23T09:37:34;101080.72;;;10.72;92.64
68986;BME280;56035;37.534;-122.308;2022-07-23T09:40:09;101089.22;;;10.70;92.67
68986;BME280;56035;37.534;-122.308;2022-07-23T09:42:38;101075.09;;;10.67;92.76
68986;BME280;56035;37.534;-122.308;2022-07-23T09:45:10;101089.44;;;10.69;92.56
68986;BME280;56035;37.534;-122.308;2022-07-23T09:47:37;101093.19;;;10.63;92.18
68986;BME280;56035;37.534;-122.308;2022-07-23T09:50:06;101085.97;;;10.62;92.89
68986;BME280;56035;37.534;-122.308;2022-07-23T09:52:44;101092.56;;;10.61;92.75
68986;BME280;56035;37.534;-122.308;2022-07-23T09:55:13;101092.41;;;10.55;93.51
68986;BME280;56035;37.534;-122.308;2022-07-23T09:57:40;101091.56;;;10.55;93.56
68986;BME280;56035;37.534;-122.308;2022-07-23T10:00:09;101092.88;;;10.52;94.00
68986;BME280;56035;37.534;-122.308;2022-07-23T10:02:36;101102.38;;;10.57;93.57
68986;BME280;56035;37.534;-122.308;2022-07-23T10:05:04;101099.47;;;10.51;94.06
68986;BME280;56035;37.534;-122.308;2022-07-23T10:07:33;101095.88;;;10.51;93.91
68986;BME280;56035;37.534;-122.308;2022-07-23T10:10:02;101093.34;;;10.49;94.64
68986;BME280;56035;37.534;-122.308;2022-07-23T10:12:29;101086.78;;;10.50;94.18
68986;BME280;56035;37.534;-122.308;2022-07-23T10:15:05;101082.56;;;10.48;95.00
68986;BME280;56035;37.534;-122.308;2022-07-23T10:17:35;101091.66;;;10.48;95.22
68986;BME280;56035;37.534;-122.308;2022-07-23T10:20:02;101091.91;;;10.47;95.18
68986;BME280;56035;37.534;-122.308;2022-07-23T10:22:38;101097.19;;;10.48;95.13
68986;BME280;56035;37.534;-122.308;2022-07-23T10:28:04;101086.41;;;10.47;95.31
68986;BME280;56035;37.534;-122.308;2022-07-23T10:30:50;101090.09;;;10.41;94.82
68986;BME280;56035;37.534;-122.308;2022-07-23T10:36:39;101095.22;;;10.37;95.66
68986;BME280;56035;37.534;-122.308;2022-07-23T10:39:15;101092.09;;;10.34;95.17
68986;BME280;56035;37.534;-122.308;2022-07-23T10:41:43;101098.66;;;10.32;95.40
68986;BME280;56035;37.534;-122.308;2022-07-23T10:44:12;101102.03;;;10.35;95.10
68986;BME280;56035;37.534;-122.308;2022-07-23T10:47:00;101099.75;;;10.31;95.23
68986;BME280;56035;37.534;-122.308;2022-07-23T10:49:42;101099.13;;;10.29;95.26
68986;BME280;56035;37.534;-122.308;2022-07-23T10:52:22;101093.16;;;10.32;95.04
68986;BME280;56035;37.534;-122.308;2022-07-23T10:57:49;101091.09;;;10.28;95.17
68986;BME280;56035;37.534;-122.308;2022-07-23T11:00:23;101099.13;;;10.29;95.48
68986;BME280;56035;37.534;-122.308;2022-07-23T11:02:52;101092.19;;;10.27;95.03
68986;BME280;56035;37.534;-122.308;2022-07-23T11:05:22;101093.44;;;10.24;95.38
68986;BME280;56035;37.534;-122.308;2022-07-23T11:10:36;101079.84;;;10.29;94.73
68986;BME280;56035;37.534;-122.308;2022-07-23T11:26:48;101087.19;;;10.36;95.07
68986;BME280;56035;37.534;-122.308;2022-07-23T11:32:07;101086.97;;;10.37;94.56
68986;BME280;56035;37.534;-122.308;2022-07-23T11:34:35;101084.06;;;10.32;93.89
68986;BME280;56035;37.534;-122.308;2022-07-23T11:37:03;101092.78;;;10.29;94.18
68986;BME280;56035;37.534;-122.308;2022-07-23T11:39:31;101089.00;;;10.23;93.70
68986;BME280;56035;37.534;-122.308;2022-07-23T11:41:57;101096.66;;;10.21;93.92
68986;BME280;56035;37.534;-122.308;2022-07-23T11:44:29;101100.34;;;10.15;94.30
68986;BME280;56035;37.534;-122.308;2022-07-23T11:47:08;101101.88;;;10.11;94.22
68986;BME280;56035;37.534;-122.308;2022-07-23T11:49:35;101111.28;;;10.03;94.18
68986;BME280;56035;37.534;-122.308;2022-07-23T11:52:12;101105.56;;;10.05;95.06
68986;BME280;56035;37.534;-122.308;2022-07-23T11:55:11;101103.25;;;10.02;95.04
68986;BME280;56035;37.534;-122.308;2022-07-23T11:57:39;101109.97;;;10.06;94.56
68986;BME280;56035;37.534;-122.308;2022-07-23T12:00:17;101109.22;;;9.99;94.77
68986;BME280;56035;37.534;-122.308;2022-07-23T12:02:49;101111.06;;;10.05;95.35
68986;BME280;56035;37.534;-122.308;2022-07-23T12:05:20;101109.38;;;10.04;95.26
68986;BME280;56035;37.534;-122.308;2022-07-23T12:07:48;101097.50;;;10.03;94.75
68986;BME280;56035;37.534;-122.308;2022-07-23T12:10:17;101102.81;;;10.05;94.58
68986;BME280;56035;37.534;-122.308;2022-07-23T12:15:24;101106.38;;;9.87;94.53
68986;BME280;56035;37.534;-122.308;2022-07-23T12:17:51;101118.78;;;9.96;95.10
68986;BME280;56035;37.534;-122.308;2022-07-23T12:20:21;101105.00;;;9.96;95.13
68986;BME280;56035;37.534;-122.308;2022-07-23T12:22:51;101104.34;;;10.01;95.40
68986;BME280;56035;37.534;-122.308;2022-07-23T12:25:20;101106.31;;;9.94;95.14
68986;BME280;56035;37.534;-122.308;2022-07-23T12:28:04;101105.94;;;9.90;95.46
68986;BME280;56035;37.534;-122.308;2022-07-23T12:30:39;101107.84;;;9.90;95.83
68986;BME280;56035;37.534;-122.308;2022-07-23T12:33:08;101116.94;;;9.90;95.33
68986;BME280;56035;37.534;-122.308;2022-07-23T12:35:41;101123.28;;;9.91;96.14
68986;BME280;56035;37.534;-122.308;2022-07-23T12:38:19;101126.19;;;9.96;97.09
68986;BME280;56035;37.534;-122.308;2022-07-23T12:40:52;101123.06;;;9.92;96.02
68986;BME280;56035;37.534;-122.308;2022-07-23T12:43:41;101119.41;;;9.98;96.90
68986;BME280;56035;37.534;-122.308;2022-07-23T12:46:14;101127.41;;;10.00;96.48
68986;BME280;56035;37.534;-122.308;2022-07-23T12:48:51;101136.38;;;9.95;96.77
68986;BME280;56035;37.534;-122.308;2022-07-23T12:51:18;101133.38;;;9.97;96.91
68986;BME280;56035;37.534;-122.308;2022-07-23T12:53:50;101139.75;;;9.97;97.36
68986;BME280;56035;37.534;-122.308;2022-07-23T12:56:21;101144.38;;;9.97;97.00
68986;BME280;56035;37.534;-122.308;2022-07-23T12:58:51;101143.72;;;10.01;97.68